Weather at Narita International Airport

Public forecast

Using degrees Celsius for public forecast. Weather courtesy of forecast.io.

Current aviation weather report (METAR) for Narita International Airport

Retrieved 2022/05/23 07:30 UTC (35 minutes ago):

RJAA 230730Z 03010KT 9999 FEW020 SCT025 20/14 Q1012 BECMG 08010KT RMK 1CU020 3CU025 A2990

Aviation forecast (TAF) for Narita International Airport

Retrieved 2022/05/23 06:31 UTC (2 hours ago):

TAF RJAA 230505Z 2306/2412 04012KT 9999 FEW020 SCT040 BECMG 2306/2308 08010KT BECMG 2311/2313 34006KT BECMG 2321/2400 16012KT